»·PEaware :: N3539W KWJF-KSNA

N3539W :: KWJF-KSNA

FLIGHT INFORMATION

Flight Status: Arrived
Operator: Privately registered:
United States
More flights under this callsign
Pilot: Joerg P. (23850)
Aircraft: PIPER PA-32 SARATOGA
(PA32)
More flights by this aircraft type
Origin: KWJF Gen Fox
United States
Destination: KSNA John Wayne-Orange Co
United States
More flights between these airports :: More routes between these airports
Route: +PMD V201 BERRI V459 SLI
File this flight plan on PilotEdge
Remarks: TEC route EDWP2
Altitude:
(Current/Filed)
9,000ft
Speed:
(Current/Filed)
145kts
Departed: 29-Nov-19 01:09 PM
Arrived: 29-Nov-19 01:56 PM
Distance/Time
Traveled:
66nm/0:47
Distance/Time
To Go:
Arrived

Flight Plot

Page will automatically refresh every two minutes.


Map Options




Map Legend


Flown Route
Filed Route
Departure Airport
Arrival Airport
Navaid (VOR, NDB)
Fix

Horizontal Profiles

Position Reports

Time Latitude Longitude Heading Altitude Ground
Speed
29-Nov-19 12:55 34.739602 -118.213554 250 2342ft 0kts
29-Nov-19 12:56 34.739602 -118.213554 250 2342ft 0kts
29-Nov-19 12:57 34.739602 -118.213554 250 2342ft 0kts
29-Nov-19 12:58 34.739602 -118.213554 250 2342ft 0kts
29-Nov-19 12:59 34.739602 -118.213554 250 2342ft 0kts
29-Nov-19 13:00 34.739602 -118.213554 250 2342ft 0kts
29-Nov-19 13:01 34.739602 -118.213554 250 2342ft 0kts
29-Nov-19 13:02 34.739601 -118.213557 250 2342ft 0kts
29-Nov-19 13:03 34.740972 -118.214860 12 2344ft 11kts
29-Nov-19 13:04 34.742507 -118.209486 68 2340ft 21kts
29-Nov-19 13:05 34.743081 -118.206988 349 2338ft 0kts
29-Nov-19 13:06 34.743287 -118.207024 342 2338ft 0kts
29-Nov-19 13:07 34.743287 -118.207024 342 2338ft 0kts
29-Nov-19 13:08 34.742904 -118.211576 249 2342ft 69kts
29-Nov-19 13:09 34.746599 -118.237270 333 3139ft 99kts
29-Nov-19 13:10 34.744915 -118.207273 125 3764ft 133kts
29-Nov-19 13:11 34.721955 -118.172491 136 4614ft 131kts
29-Nov-19 13:12 34.695382 -118.140776 144 5436ft 134kts
29-Nov-19 13:13 34.666823 -118.109520 136 5993ft 153kts
29-Nov-19 13:14 34.638180 -118.068739 144 6447ft 153kts
29-Nov-19 13:15 34.603533 -118.069798 222 6984ft 128kts
29-Nov-19 13:16 34.573980 -118.091256 197 7521ft 137kts
29-Nov-19 13:17 34.539517 -118.106401 221 8021ft 129kts
29-Nov-19 13:18 34.507394 -118.127169 216 8493ft 131kts
29-Nov-19 13:19 34.475043 -118.147801 217 8944ft 131kts
29-Nov-19 13:20 34.440416 -118.169046 213 9012ft 147kts
29-Nov-19 13:21 34.402604 -118.190662 213 9009ft 151kts
29-Nov-19 13:22 34.364407 -118.212525 213 9008ft 151kts
29-Nov-19 13:23 34.326638 -118.233994 213 9008ft 149kts
29-Nov-19 13:24 34.288860 -118.255482 213 9008ft 150kts
29-Nov-19 13:25 34.251867 -118.278233 215 9008ft 149kts
29-Nov-19 13:26 34.213731 -118.297655 174 9016ft 166kts
29-Nov-19 13:27 34.173791 -118.264328 150 9029ft 176kts
29-Nov-19 13:28 34.131910 -118.234555 163 9040ft 172kts
29-Nov-19 13:29 34.087294 -118.215712 171 9059ft 168kts
29-Nov-19 13:30 34.042034 -118.199729 171 9063ft 169kts
29-Nov-19 13:31 33.994800 -118.189688 180 8598ft 179kts
29-Nov-19 13:33 33.946002 -118.183197 179 8092ft 173kts
29-Nov-19 13:34 33.899056 -118.174438 178 7468ft 171kts
29-Nov-19 13:35 33.851920 -118.161212 181 7030ft 166kts
29-Nov-19 13:36 33.807274 -118.155885 182 7036ft 158kts
29-Nov-19 13:37 33.763438 -118.150696 182 7036ft 157kts
29-Nov-19 13:38 33.718224 -118.143216 178 6594ft 167kts
29-Nov-19 13:39 33.680174 -118.115611 91 6000ft 188kts
29-Nov-19 13:40 33.684564 -118.051951 87 5267ft 187kts
29-Nov-19 13:41 33.687219 -117.992481 77 5196ft 189kts
29-Nov-19 13:42 33.692711 -117.930215 70 4959ft 180kts
29-Nov-19 13:43 33.726714 -117.893299 26 5062ft 160kts
29-Nov-19 13:44 33.767632 -117.872238 15 5050ft 162kts
29-Nov-19 13:45 33.809997 -117.855444 12 5017ft 163kts
29-Nov-19 13:46 33.851462 -117.837658 19 4772ft 176kts
29-Nov-19 13:47 33.887414 -117.803156 39 4071ft 176kts
29-Nov-19 13:48 33.893654 -117.747582 98 3977ft 175kts
29-Nov-19 13:49 33.861124 -117.742472 213 4035ft 140kts
29-Nov-19 13:50 33.827614 -117.772581 221 3484ft 154kts
29-Nov-19 13:51 33.787144 -117.793838 210 2554ft 144kts
29-Nov-19 13:52 33.758792 -117.815086 212 1622ft 115kts
29-Nov-19 13:52 33.735727 -117.830855 202 1166ft 107kts
29-Nov-19 13:54 33.705955 -117.849587 203 629ft 103kts
29-Nov-19 13:55 33.681855 -117.864887 206 79ft 82kts
29-Nov-19 13:55 33.675961 -117.869903 293 59ft 0kts
29-Nov-19 13:56 33.675391 -117.871217 250 59ft 12kts

Navigation Log

Ident Type
Flight plan parsing failed, navigation log unavailable